createdAt,value
2023-03-27T00:00:13.439Z,12.38
2023-03-27T00:05:16.945Z,13.43
2023-03-27T00:10:19.547Z,13.10
2023-03-27T00:15:22.274Z,10.60
2023-03-27T00:20:26.455Z,11.30
2023-03-27T00:25:29.960Z,9.63
2023-03-27T00:30:33.921Z,8.80
2023-03-27T00:35:37.104Z,6.28
2023-03-27T00:40:40.198Z,6.72
2023-03-27T00:45:43.675Z,7.53
2023-03-27T00:50:48.570Z,12.27
2023-03-27T00:55:55.027Z,8.38
2023-03-27T01:00:58.339Z,10.38
2023-03-27T01:06:02.503Z,8.00
2023-03-27T01:11:43.087Z,7.78
2023-03-27T01:16:51.675Z,8.73
2023-03-27T01:22:13.876Z,9.38
2023-03-27T01:27:38.034Z,6.65
2023-03-27T01:32:43.811Z,11.13
2023-03-27T01:37:58.806Z,15.65
2023-03-27T01:43:11.626Z,17.65
2023-03-27T01:48:39.796Z,35.78
2023-03-27T01:54:06.515Z,23.10
2023-03-27T01:59:19.008Z,62.42
2023-03-27T02:04:27.422Z,26.50
2023-03-27T02:09:35.810Z,36.08
2023-03-27T02:15:24.168Z,35.42
2023-03-27T02:20:28.941Z,65.45
2023-03-27T02:25:42.101Z,23.45
2023-03-27T02:31:33.165Z,19.83
2023-03-27T02:36:55.821Z,67.70
2023-03-27T02:42:25.845Z,46.22
2023-03-27T02:47:42.713Z,72.07
2023-03-27T02:52:53.865Z,23.33
2023-03-27T02:58:03.305Z,27.88
2023-03-27T03:03:53.897Z,32.10
2023-03-27T03:09:19.140Z,23.25
2023-03-27T03:14:28.187Z,32.25
2023-03-27T03:19:31.450Z,27.35
2023-03-27T03:24:35.697Z,27.98
2023-03-27T03:29:40.007Z,40.70
2023-03-27T03:34:57.108Z,30.25
2023-03-27T03:40:01.536Z,26.77
2023-03-27T03:45:09.312Z,22.08
2023-03-27T03:50:13.570Z,21.80
2023-03-27T03:55:16.630Z,21.80
2023-03-27T04:00:19.815Z,21.75
2023-03-27T04:05:27.305Z,24.92
2023-03-27T04:10:35.838Z,30.35
2023-03-27T04:15:41.832Z,31.30
2023-03-27T04:20:54.525Z,23.10
2023-03-27T04:26:02.115Z,24.60
2023-03-27T04:31:40.123Z,23.80
2023-03-27T04:37:08.436Z,19.95
2023-03-27T04:42:16.656Z,24.85
2023-03-27T04:47:20.558Z,25.75
2023-03-27T04:52:26.408Z,17.33
2023-03-27T04:57:31.083Z,17.58
2023-03-27T05:02:36.299Z,18.60
2023-03-27T05:07:48.109Z,23.73
2023-03-27T05:12:57.863Z,27.55
2023-03-27T05:18:02.184Z,21.17
2023-03-27T05:23:06.696Z,17.45
2023-03-27T05:28:09.471Z,18.05
2023-03-27T05:33:14.348Z,19.73
2023-03-27T05:38:17.629Z,16.25
2023-03-27T05:43:46.670Z,15.90
2023-03-27T05:48:51.033Z,16.58
2023-03-27T05:53:54.058Z,15.63
2023-03-27T05:59:01.320Z,16.23
2023-03-27T06:04:05.650Z,16.23
2023-03-27T06:09:26.707Z,14.38
2023-03-27T06:14:58.488Z,11.82
2023-03-27T06:20:13.058Z,16.88
2023-03-27T06:25:20.459Z,16.73
2023-03-27T06:30:25.069Z,15.05
2023-03-27T06:35:53.262Z,19.05
2023-03-27T06:41:04.986Z,18.38
2023-03-27T06:46:42.561Z,19.92
2023-03-27T06:52:17.845Z,23.77
2023-03-27T06:57:21.744Z,22.13
2023-03-27T07:02:28.334Z,23.95
2023-03-27T07:08:18.994Z,22.80
2023-03-27T07:13:28.150Z,20.65
2023-03-27T07:18:33.294Z,19.63
2023-03-27T07:23:36.047Z,16.45
2023-03-27T07:28:45.193Z,16.70
2023-03-27T07:33:48.791Z,15.55
2023-03-27T07:38:52.399Z,13.13
2023-03-27T07:44:04.173Z,17.02
2023-03-27T07:49:18.859Z,18.48
2023-03-27T07:54:21.892Z,11.75
2023-03-27T07:59:28.258Z,10.70
2023-03-27T08:04:34.064Z,12.05
2023-03-27T08:09:40.725Z,10.45
2023-03-27T08:14:47.169Z,12.23
2023-03-27T08:25:00.504Z,13.75
2023-03-27T08:30:05.304Z,8.60
2023-03-27T08:35:15.712Z,9.50
2023-03-27T08:40:28.549Z,7.28
2023-03-27T08:45:55.853Z,7.50
2023-03-27T08:51:07.103Z,10.85
2023-03-27T08:56:17.356Z,11.40
2023-03-27T09:01:38.543Z,19.25
2023-03-27T09:06:58.704Z,9.52
2023-03-27T09:12:39.506Z,5.53
2023-03-27T09:18:18.747Z,9.55
2023-03-27T09:23:31.141Z,7.63
2023-03-27T09:28:56.236Z,4.55
2023-03-27T09:34:07.103Z,4.63
2023-03-27T09:39:17.412Z,4.57
2023-03-27T09:44:30.205Z,8.23
2023-03-27T09:49:38.630Z,8.27
2023-03-27T09:54:54.958Z,4.10
2023-03-27T10:00:15.793Z,5.72
2023-03-27T10:05:27.333Z,3.28
2023-03-27T10:10:35.024Z,7.45
2023-03-27T10:15:41.261Z,4.75
2023-03-27T10:20:53.886Z,3.08
2023-03-27T10:26:03.874Z,3.13
2023-03-27T10:31:49.839Z,3.53
2023-03-27T10:37:49.790Z,11.55
2023-03-27T10:43:13.093Z,5.28
2023-03-27T10:48:27.979Z,3.75
2023-03-27T10:58:52.181Z,5.97
2023-03-27T11:09:24.594Z,5.88
2023-03-27T11:15:02.795Z,7.20
2023-03-27T11:20:19.741Z,3.47
2023-03-27T11:25:49.697Z,5.20
2023-03-27T11:31:12.026Z,5.25
2023-03-27T11:36:41.719Z,5.22
2023-03-27T11:42:05.366Z,6.00
2023-03-27T11:47:28.479Z,5.47
2023-03-27T11:52:42.870Z,5.60
2023-03-27T11:58:14.891Z,7.50
2023-03-27T12:03:33.743Z,5.28
2023-03-27T12:08:55.687Z,5.55
2023-03-27T12:14:18.497Z,4.03
2023-03-27T12:20:00.733Z,3.65
2023-03-27T12:25:51.440Z,3.20
2023-03-27T12:31:28.566Z,3.80
2023-03-27T12:36:36.525Z,3.30
2023-03-27T12:41:44.155Z,3.20
2023-03-27T12:47:24.349Z,3.83
2023-03-27T12:52:38.607Z,5.70
2023-03-27T12:57:50.993Z,5.43
2023-03-27T13:03:19.710Z,4.40
2023-03-27T13:08:52.086Z,5.10
2023-03-27T13:14:35.464Z,5.38
2023-03-27T13:20:09.843Z,4.20
2023-03-27T13:25:42.347Z,5.20
2023-03-27T13:30:47.374Z,4.03
2023-03-27T13:36:19.996Z,3.78
2023-03-27T13:41:48.220Z,3.75
2023-03-27T13:47:16.243Z,5.70
2023-03-27T13:52:56.793Z,3.85
2023-03-27T13:58:34.624Z,5.68
2023-03-27T14:04:04.832Z,3.72
2023-03-27T14:15:02.048Z,4.68
2023-03-27T14:20:15.247Z,12.35
2023-03-27T14:25:35.094Z,12.88
2023-03-27T14:30:56.485Z,6.25
2023-03-27T14:36:26.206Z,5.25
2023-03-27T14:41:31.435Z,6.03
2023-03-27T14:46:37.526Z,5.07
2023-03-27T14:51:48.254Z,9.60
2023-03-27T14:57:14.338Z,5.72
2023-03-27T15:07:43.196Z,7.75
2023-03-27T15:12:52.970Z,4.82
2023-03-27T15:17:59.822Z,5.70
2023-03-27T15:23:13.279Z,5.53
2023-03-27T15:28:23.857Z,5.80
2023-03-27T15:34:04.902Z,5.07
2023-03-27T15:39:08.522Z,4.80
2023-03-27T15:44:17.647Z,6.32
2023-03-27T15:49:28.226Z,6.97
2023-03-27T15:54:34.359Z,6.68
2023-03-27T15:59:36.903Z,6.60
2023-03-27T16:04:57.795Z,6.07
2023-03-27T16:10:05.320Z,6.68
2023-03-27T16:15:28.576Z,5.53
2023-03-27T16:20:35.181Z,6.38
2023-03-27T16:25:38.970Z,5.45
2023-03-27T16:30:42.441Z,4.78
2023-03-27T16:35:46.067Z,5.47
2023-03-27T16:40:49.698Z,8.50
2023-03-27T16:45:52.576Z,7.60
2023-03-27T16:50:55.398Z,8.43
2023-03-27T16:55:59.761Z,5.88
2023-03-27T17:01:02.795Z,8.00
2023-03-27T17:06:11.532Z,6.55
2023-03-27T17:11:14.326Z,7.85
2023-03-27T17:16:17.333Z,6.47
2023-03-27T17:21:20.324Z,11.00
2023-03-27T17:26:28.844Z,7.93
2023-03-27T17:31:32.471Z,5.78
2023-03-27T17:36:44.927Z,7.65
2023-03-27T17:41:50.963Z,7.25
2023-03-27T17:46:53.582Z,7.60
2023-03-27T17:51:56.430Z,9.68
2023-03-27T17:56:59.102Z,9.35
2023-03-27T18:02:03.315Z,8.18
2023-03-27T18:07:06.510Z,7.43
2023-03-27T18:12:10.162Z,6.80
2023-03-27T18:17:15.888Z,7.15
2023-03-27T18:22:18.469Z,6.55
2023-03-27T18:27:21.158Z,9.60
2023-03-27T18:32:23.842Z,7.75
2023-03-27T18:37:27.478Z,10.73
2023-03-27T18:42:30.049Z,7.95
2023-03-27T18:47:33.186Z,8.63
2023-03-27T18:52:36.069Z,7.10
2023-03-27T18:57:38.711Z,9.77
2023-03-27T19:02:41.507Z,8.45
2023-03-27T19:07:44.278Z,8.23
2023-03-27T19:12:49.795Z,9.75
2023-03-27T19:18:11.103Z,7.50
2023-03-27T19:23:32.349Z,10.85
2023-03-27T19:28:35.198Z,8.65
2023-03-27T19:33:38.715Z,17.15
2023-03-27T19:38:42.054Z,8.18
2023-03-27T19:43:44.676Z,8.35
2023-03-27T19:48:49.202Z,11.90
2023-03-27T19:54:00.559Z,10.63
2023-03-27T19:59:04.460Z,9.68
2023-03-27T20:04:07.082Z,11.65
2023-03-27T20:09:10.487Z,10.80
2023-03-27T20:14:13.541Z,10.00
2023-03-27T20:19:17.101Z,11.82
2023-03-27T20:24:19.721Z,13.60
2023-03-27T20:29:29.688Z,10.68
2023-03-27T20:34:32.611Z,10.30
2023-03-27T20:39:38.854Z,12.70
2023-03-27T20:44:45.758Z,11.50
2023-03-27T20:49:48.367Z,10.30
2023-03-27T20:54:51.617Z,12.45
2023-03-27T20:59:55.845Z,16.73
2023-03-27T21:04:58.448Z,18.13
2023-03-27T21:10:01.198Z,24.48
2023-03-27T21:15:05.698Z,16.38
2023-03-27T21:20:10.380Z,20.08
2023-03-27T21:25:13.188Z,11.57
2023-03-27T21:30:16.668Z,12.32
2023-03-27T21:35:19.332Z,12.38
2023-03-27T21:40:21.931Z,10.48
2023-03-27T21:45:24.588Z,12.55
2023-03-27T21:50:27.317Z,11.02
2023-03-27T21:55:29.876Z,8.68
2023-03-27T22:00:32.525Z,8.85
2023-03-27T22:05:39.114Z,7.65
2023-03-27T22:10:41.749Z,8.25
2023-03-27T22:15:44.353Z,10.27
2023-03-27T22:20:47.030Z,9.13
2023-03-27T22:25:55.650Z,10.45
2023-03-27T22:30:58.320Z,10.57
2023-03-27T22:36:01.351Z,9.57
2023-03-27T22:41:06.373Z,8.60
2023-03-27T22:46:20.376Z,14.10
2023-03-27T22:51:23.849Z,10.07
2023-03-27T22:56:26.737Z,9.60
2023-03-27T23:01:29.378Z,12.52
2023-03-27T23:06:32.044Z,13.20
2023-03-27T23:11:34.692Z,12.02
2023-03-27T23:16:37.405Z,12.00
2023-03-27T23:21:40.234Z,12.90
2023-03-27T23:26:42.815Z,11.85
2023-03-27T23:31:45.486Z,11.45
2023-03-27T23:36:48.065Z,9.98
2023-03-27T23:41:50.722Z,11.55
2023-03-27T23:46:53.301Z,13.90
2023-03-27T23:51:56.073Z,14.70
2023-03-27T23:56:58.689Z,14.20
